sensor_id;sensor_type;location;lat;lon;timestamp;pressure;altitude;pressure_sealevel;temperature;humidity
21185;BME280;18176;49.502;11.754;2023-02-11T00:02:50;98836.81;;;-1.13;75.39
21185;BME280;18176;49.502;11.754;2023-02-11T00:06:50;98828.00;;;-1.23;76.00
21185;BME280;18176;49.502;11.754;2023-02-11T00:10:52;98831.53;;;-1.24;75.75
21185;BME280;18176;49.502;11.754;2023-02-11T00:14:52;98840.69;;;-1.31;76.12
21185;BME280;18176;49.502;11.754;2023-02-11T00:18:58;98829.72;;;-1.47;76.57
21185;BME280;18176;49.502;11.754;2023-02-11T00:22:58;98843.09;;;-1.28;75.80
21185;BME280;18176;49.502;11.754;2023-02-11T00:26:59;98828.69;;;-1.45;75.60
21185;BME280;18176;49.502;11.754;2023-02-11T00:30:59;98837.88;;;-1.28;75.65
21185;BME280;18176;49.502;11.754;2023-02-11T00:35:04;98830.91;;;-1.27;75.79
21185;BME280;18176;49.502;11.754;2023-02-11T00:39:06;98829.31;;;-1.41;76.38
21185;BME280;18176;49.502;11.754;2023-02-11T00:43:07;98826.38;;;-1.36;75.88
21185;BME280;18176;49.502;11.754;2023-02-11T00:47:07;98810.78;;;-1.36;75.84
21185;BME280;18176;49.502;11.754;2023-02-11T00:51:10;98798.16;;;-1.30;75.23
21185;BME280;18176;49.502;11.754;2023-02-11T00:55:11;98796.50;;;-1.31;74.83
21185;BME280;18176;49.502;11.754;2023-02-11T00:59:12;98794.22;;;-1.59;75.62
21185;BME280;18176;49.502;11.754;2023-02-11T01:03:14;98811.25;;;-1.55;75.93
21185;BME280;18176;49.502;11.754;2023-02-11T01:07:18;98809.16;;;-1.50;76.39
21185;BME280;18176;49.502;11.754;2023-02-11T01:11:20;98800.56;;;-1.63;76.50
21185;BME280;18176;49.502;11.754;2023-02-11T01:15:22;98795.50;;;-1.41;75.96
21185;BME280;18176;49.502;11.754;2023-02-11T01:19:23;98782.50;;;-1.41;75.98
21185;BME280;18176;49.502;11.754;2023-02-11T01:23:26;98769.84;;;-1.46;75.85
21185;BME280;18176;49.502;11.754;2023-02-11T01:27:27;98761.09;;;-1.45;75.61
21185;BME280;18176;49.502;11.754;2023-02-11T01:31:29;98762.00;;;-1.57;75.50
21185;BME280;18176;49.502;11.754;2023-02-11T01:35:30;98772.19;;;-1.66;76.11
21185;BME280;18176;49.502;11.754;2023-02-11T01:39:35;98782.41;;;-1.76;75.93
21185;BME280;18176;49.502;11.754;2023-02-11T01:43:39;98775.38;;;-1.50;75.65
21185;BME280;18176;49.502;11.754;2023-02-11T01:47:40;98778.94;;;-1.40;75.66
21185;BME280;18176;49.502;11.754;2023-02-11T01:51:46;98774.19;;;-1.46;75.63
21185;BME280;18176;49.502;11.754;2023-02-11T01:55:51;98767.78;;;-1.53;76.20
21185;BME280;18176;49.502;11.754;2023-02-11T02:00:12;98752.56;;;-1.47;76.49
21185;BME280;18176;49.502;11.754;2023-02-11T02:04:17;98742.72;;;-1.54;76.68
21185;BME280;18176;49.502;11.754;2023-02-11T02:08:26;98750.84;;;-1.35;76.48
21185;BME280;18176;49.502;11.754;2023-02-11T02:12:33;98729.47;;;-1.38;76.63
21185;BME280;18176;49.502;11.754;2023-02-11T02:16:36;98738.91;;;-1.14;76.43
21185;BME280;18176;49.502;11.754;2023-02-11T02:21:21;98736.53;;;-1.06;76.03
21185;BME280;18176;49.502;11.754;2023-02-11T02:31:15;98714.59;;;-1.02;76.74
21185;BME280;18176;49.502;11.754;2023-02-11T02:35:39;98719.50;;;-1.10;77.52
21185;BME280;18176;49.502;11.754;2023-02-11T02:39:45;98706.31;;;-0.96;77.63
21185;BME280;18176;49.502;11.754;2023-02-11T02:43:50;98704.66;;;-0.97;77.45
21185;BME280;18176;49.502;11.754;2023-02-11T02:47:52;98703.00;;;-0.98;77.35
21185;BME280;18176;49.502;11.754;2023-02-11T02:52:17;98705.81;;;-1.01;76.86
21185;BME280;18176;49.502;11.754;2023-02-11T02:56:35;98719.41;;;-1.08;77.65
21185;BME280;18176;49.502;11.754;2023-02-11T03:00:50;98724.19;;;-0.91;76.91
21185;BME280;18176;49.502;11.754;2023-02-11T03:05:02;98712.94;;;-0.92;77.30
21185;BME280;18176;49.502;11.754;2023-02-11T03:09:15;98719.13;;;-0.82;77.32
21185;BME280;18176;49.502;11.754;2023-02-11T03:13:24;98729.16;;;-0.88;77.64
21185;BME280;18176;49.502;11.754;2023-02-11T03:17:27;98726.44;;;-0.87;77.71
21185;BME280;18176;49.502;11.754;2023-02-11T03:21:32;98727.34;;;-0.99;78.74
21185;BME280;18176;49.502;11.754;2023-02-11T03:25:49;98719.84;;;-0.68;78.42
21185;BME280;18176;49.502;11.754;2023-02-11T03:29:58;98706.16;;;-0.48;77.64
21185;BME280;18176;49.502;11.754;2023-02-11T03:34:08;98690.16;;;-0.55;78.24
21185;BME280;18176;49.502;11.754;2023-02-11T03:38:16;98700.59;;;-0.33;78.35
21185;BME280;18176;49.502;11.754;2023-02-11T03:42:29;98700.25;;;-0.28;78.02
21185;BME280;18176;49.502;11.754;2023-02-11T03:46:36;98690.31;;;-0.23;77.81
21185;BME280;18176;49.502;11.754;2023-02-11T03:50:40;98666.59;;;-0.31;77.23
21185;BME280;18176;49.502;11.754;2023-02-11T03:54:44;98670.28;;;-0.12;76.99
21185;BME280;18176;49.502;11.754;2023-02-11T03:58:48;98653.13;;;-0.36;76.81
21185;BME280;18176;49.502;11.754;2023-02-11T04:02:49;98661.38;;;-0.20;77.04
21185;BME280;18176;49.502;11.754;2023-02-11T04:06:49;98668.97;;;-0.17;76.65
21185;BME280;18176;49.502;11.754;2023-02-11T04:10:49;98659.63;;;-0.20;76.51
21185;BME280;18176;49.502;11.754;2023-02-11T04:14:53;98668.47;;;-0.11;76.49
21185;BME280;18176;49.502;11.754;2023-02-11T04:18:53;98660.78;;;-0.13;76.25
21185;BME280;18176;49.502;11.754;2023-02-11T04:22:54;98659.84;;;-0.23;76.45
21185;BME280;18176;49.502;11.754;2023-02-11T04:26:54;98647.78;;;-0.24;76.84
21185;BME280;18176;49.502;11.754;2023-02-11T04:30:57;98638.41;;;-0.15;76.66
21185;BME280;18176;49.502;11.754;2023-02-11T04:34:58;98648.13;;;-0.17;76.10
21185;BME280;18176;49.502;11.754;2023-02-11T04:38:59;98650.97;;;-0.20;76.20
21185;BME280;18176;49.502;11.754;2023-02-11T04:42:59;98633.44;;;-0.18;76.40
21185;BME280;18176;49.502;11.754;2023-02-11T04:47:03;98636.75;;;-0.27;76.25
21185;BME280;18176;49.502;11.754;2023-02-11T04:51:04;98644.94;;;-0.10;76.71
21185;BME280;18176;49.502;11.754;2023-02-11T04:55:06;98626.09;;;-0.13;76.80
21185;BME280;18176;49.502;11.754;2023-02-11T04:59:07;98620.84;;;-0.02;76.22
21185;BME280;18176;49.502;11.754;2023-02-11T05:03:12;98617.06;;;-0.09;76.46
21185;BME280;18176;49.502;11.754;2023-02-11T05:07:13;98611.59;;;0.05;76.03
21185;BME280;18176;49.502;11.754;2023-02-11T05:11:17;98606.38;;;0.05;77.07
21185;BME280;18176;49.502;11.754;2023-02-11T05:15:18;98590.00;;;0.14;77.36
21185;BME280;18176;49.502;11.754;2023-02-11T05:19:21;98606.28;;;0.59;77.28
21185;BME280;18176;49.502;11.754;2023-02-11T05:23:22;98604.91;;;0.76;76.64
21185;BME280;18176;49.502;11.754;2023-02-11T05:27:22;98625.63;;;0.98;75.76
21185;BME280;18176;49.502;11.754;2023-02-11T05:31:22;98615.53;;;1.14;75.11
21185;BME280;18176;49.502;11.754;2023-02-11T05:35:26;98612.63;;;1.07;75.54
21185;BME280;18176;49.502;11.754;2023-02-11T05:39:27;98602.25;;;1.17;75.04
21185;BME280;18176;49.502;11.754;2023-02-11T05:43:27;98606.75;;;1.45;74.29
21185;BME280;18176;49.502;11.754;2023-02-11T05:47:28;98586.28;;;1.50;73.62
21185;BME280;18176;49.502;11.754;2023-02-11T05:51:31;98578.06;;;1.24;74.05
21185;BME280;18176;49.502;11.754;2023-02-11T05:55:32;98585.56;;;1.38;73.67
21185;BME280;18176;49.502;11.754;2023-02-11T05:59:33;98612.84;;;1.55;73.35
21185;BME280;18176;49.502;11.754;2023-02-11T06:03:33;98610.88;;;1.38;73.63
21185;BME280;18176;49.502;11.754;2023-02-11T06:07:37;98586.13;;;1.12;74.85
21185;BME280;18176;49.502;11.754;2023-02-11T06:11:37;98599.00;;;1.34;75.11
21185;BME280;18176;49.502;11.754;2023-02-11T06:15:38;98593.00;;;1.43;74.51
21185;BME280;18176;49.502;11.754;2023-02-11T06:19:39;98593.72;;;1.45;74.51
21185;BME280;18176;49.502;11.754;2023-02-11T06:23:41;98616.25;;;1.46;74.34
21185;BME280;18176;49.502;11.754;2023-02-11T06:27:42;98622.16;;;1.48;74.67
21185;BME280;18176;49.502;11.754;2023-02-11T06:31:43;98597.19;;;1.65;75.76
21185;BME280;18176;49.502;11.754;2023-02-11T06:35:43;98597.00;;;1.57;74.83
21185;BME280;18176;49.502;11.754;2023-02-11T06:39:47;98589.75;;;1.60;75.19
21185;BME280;18176;49.502;11.754;2023-02-11T06:43:48;98596.09;;;1.67;74.13
21185;BME280;18176;49.502;11.754;2023-02-11T06:47:51;98605.19;;;1.73;74.20
21185;BME280;18176;49.502;11.754;2023-02-11T06:51:51;98611.94;;;1.75;74.53
21185;BME280;18176;49.502;11.754;2023-02-11T06:55:55;98611.56;;;1.89;74.46
21185;BME280;18176;49.502;11.754;2023-02-11T06:59:55;98606.91;;;2.02;74.30
21185;BME280;18176;49.502;11.754;2023-02-11T07:03:56;98605.13;;;2.22;73.90
21185;BME280;18176;49.502;11.754;2023-02-11T07:07:56;98616.28;;;2.34;73.08
21185;BME280;18176;49.502;11.754;2023-02-11T07:11:59;98616.84;;;2.47;72.83
21185;BME280;18176;49.502;11.754;2023-02-11T07:16:06;98623.03;;;2.65;72.64
21185;BME280;18176;49.502;11.754;2023-02-11T07:20:07;98617.66;;;2.66;71.97
21185;BME280;18176;49.502;11.754;2023-02-11T07:24:09;98595.06;;;2.65;71.32
21185;BME280;18176;49.502;11.754;2023-02-11T07:28:12;98612.97;;;2.70;71.48
21185;BME280;18176;49.502;11.754;2023-02-11T07:32:13;98622.59;;;2.79;71.75
21185;BME280;18176;49.502;11.754;2023-02-11T07:36:15;98612.69;;;2.73;71.61
21185;BME280;18176;49.502;11.754;2023-02-11T07:40:16;98617.38;;;2.79;71.71
21185;BME280;18176;49.502;11.754;2023-02-11T07:44:20;98619.59;;;2.74;72.38
21185;BME280;18176;49.502;11.754;2023-02-11T07:48:22;98623.31;;;3.27;72.60
21185;BME280;18176;49.502;11.754;2023-02-11T07:52:23;98596.38;;;3.72;72.17
21185;BME280;18176;49.502;11.754;2023-02-11T07:56:24;98614.97;;;4.58;70.20
21185;BME280;18176;49.502;11.754;2023-02-11T08:00:28;98608.50;;;5.14;67.60
21185;BME280;18176;49.502;11.754;2023-02-11T08:04:28;98640.13;;;5.30;66.72
21185;BME280;18176;49.502;11.754;2023-02-11T08:08:29;98637.47;;;5.22;65.34
21185;BME280;18176;49.502;11.754;2023-02-11T08:12:30;98649.03;;;5.29;65.82
21185;BME280;18176;49.502;11.754;2023-02-11T08:16:36;98650.97;;;5.27;66.12
21185;BME280;18176;49.502;11.754;2023-02-11T08:20:37;98660.47;;;5.20;65.81
21185;BME280;18176;49.502;11.754;2023-02-11T08:24:38;98647.06;;;5.31;65.56
21185;BME280;18176;49.502;11.754;2023-02-11T08:28:42;98638.81;;;5.26;64.87
21185;BME280;18176;49.502;11.754;2023-02-11T08:32:45;98642.16;;;5.36;65.48
21185;BME280;18176;49.502;11.754;2023-02-11T08:36:47;98640.97;;;5.56;64.92
21185;BME280;18176;49.502;11.754;2023-02-11T08:40:49;98639.66;;;5.60;64.20
21185;BME280;18176;49.502;11.754;2023-02-11T08:44:50;98626.94;;;5.81;64.47
21185;BME280;18176;49.502;11.754;2023-02-11T08:48:54;98597.31;;;5.71;63.94
21185;BME280;18176;49.502;11.754;2023-02-11T08:52:54;98629.56;;;5.81;62.51
21185;BME280;18176;49.502;11.754;2023-02-11T08:56:55;98623.03;;;5.85;63.30
21185;BME280;18176;49.502;11.754;2023-02-11T09:00:55;98638.13;;;6.25;62.48
21185;BME280;18176;49.502;11.754;2023-02-11T09:04:58;98639.84;;;6.42;61.16
21185;BME280;18176;49.502;11.754;2023-02-11T09:08:59;98635.75;;;6.72;61.32
21185;BME280;18176;49.502;11.754;2023-02-11T09:13:01;98624.22;;;7.05;60.26
21185;BME280;18176;49.502;11.754;2023-02-11T09:17:01;98625.22;;;7.04;59.38
21185;BME280;18176;49.502;11.754;2023-02-11T09:21:07;98610.81;;;7.31;59.13
21185;BME280;18176;49.502;11.754;2023-02-11T09:25:09;98628.47;;;7.38;59.78
21185;BME280;18176;49.502;11.754;2023-02-11T09:29:09;98620.44;;;7.70;59.05
21185;BME280;18176;49.502;11.754;2023-02-11T09:33:10;98624.38;;;7.83;56.82
21185;BME280;18176;49.502;11.754;2023-02-11T09:37:13;98626.06;;;8.06;57.43
21185;BME280;18176;49.502;11.754;2023-02-11T09:41:36;98613.34;;;8.40;56.31
21185;BME280;18176;49.502;11.754;2023-02-11T09:45:38;98617.31;;;8.67;55.99
21185;BME280;18176;49.502;11.754;2023-02-11T09:49:47;98607.09;;;8.64;55.91
21185;BME280;18176;49.502;11.754;2023-02-11T09:54:00;98617.88;;;8.77;56.04
21185;BME280;18176;49.502;11.754;2023-02-11T09:58:13;98611.56;;;8.86;55.53
21185;BME280;18176;49.502;11.754;2023-02-11T10:02:23;98612.59;;;8.77;55.49
21185;BME280;18176;49.502;11.754;2023-02-11T10:06:44;98624.00;;;8.55;56.34
21185;BME280;18176;49.502;11.754;2023-02-11T10:10:53;98624.88;;;8.17;56.30
21185;BME280;18176;49.502;11.754;2023-02-11T10:15:12;98604.28;;;8.12;56.84
21185;BME280;18176;49.502;11.754;2023-02-11T10:19:37;98616.44;;;8.21;57.06
21185;BME280;18176;49.502;11.754;2023-02-11T10:23:45;98620.81;;;8.37;56.92
21185;BME280;18176;49.502;11.754;2023-02-11T10:27:54;98615.78;;;8.50;56.75
21185;BME280;18176;49.502;11.754;2023-02-11T10:31:57;98612.59;;;8.55;57.09
21185;BME280;18176;49.502;11.754;2023-02-11T10:35:59;98631.50;;;8.66;56.69
21185;BME280;18176;49.502;11.754;2023-02-11T10:39:59;98629.28;;;8.55;57.18
21185;BME280;18176;49.502;11.754;2023-02-11T10:44:06;98599.72;;;8.29;57.67
21185;BME280;18176;49.502;11.754;2023-02-11T10:48:39;98635.38;;;8.33;57.63
21185;BME280;18176;49.502;11.754;2023-02-11T10:52:40;98640.09;;;8.07;58.51
21185;BME280;18176;49.502;11.754;2023-02-11T10:56:46;98649.69;;;8.00;58.92
21185;BME280;18176;49.502;11.754;2023-02-11T11:00:54;98650.00;;;8.05;58.84
21185;BME280;18176;49.502;11.754;2023-02-11T11:04:58;98647.94;;;8.23;58.59
21185;BME280;18176;49.502;11.754;2023-02-11T11:08:59;98632.16;;;8.45;58.20
21185;BME280;18176;49.502;11.754;2023-02-11T11:13:02;98634.34;;;8.42;57.81
21185;BME280;18176;49.502;11.754;2023-02-11T11:17:17;98641.13;;;8.59;57.83
21185;BME280;18176;49.502;11.754;2023-02-11T11:21:22;98634.44;;;8.48;57.83
21185;BME280;18176;49.502;11.754;2023-02-11T11:25:26;98622.47;;;8.38;57.98
21185;BME280;18176;49.502;11.754;2023-02-11T11:29:33;98611.75;;;8.31;58.37
21185;BME280;18176;49.502;11.754;2023-02-11T11:33:42;98610.97;;;8.23;58.89
21185;BME280;18176;49.502;11.754;2023-02-11T11:37:43;98601.50;;;8.36;58.69
21185;BME280;18176;49.502;11.754;2023-02-11T11:41:54;98607.31;;;8.55;58.29
21185;BME280;18176;49.502;11.754;2023-02-11T11:45:58;98602.69;;;8.57;58.37
21185;BME280;18176;49.502;11.754;2023-02-11T11:50:28;98598.88;;;8.59;58.63
21185;BME280;18176;49.502;11.754;2023-02-11T11:54:33;98595.84;;;8.85;58.20
21185;BME280;18176;49.502;11.754;2023-02-11T11:58:34;98591.81;;;8.74;58.09
21185;BME280;18176;49.502;11.754;2023-02-11T12:03:13;98592.06;;;8.42;58.79
21185;BME280;18176;49.502;11.754;2023-02-11T12:07:35;98600.63;;;8.67;59.23
21185;BME280;18176;49.502;11.754;2023-02-11T12:11:55;98585.13;;;7.79;60.75
21185;BME280;18176;49.502;11.754;2023-02-11T12:16:11;98588.03;;;8.23;59.91
21185;BME280;18176;49.502;11.754;2023-02-11T12:20:31;98594.88;;;9.00;58.12
21185;BME280;18176;49.502;11.754;2023-02-11T12:24:58;98587.38;;;9.27;57.28
21185;BME280;18176;49.502;11.754;2023-02-11T12:29:12;98592.81;;;9.10;57.37
21185;BME280;18176;49.502;11.754;2023-02-11T12:33:35;98555.97;;;9.24;56.82
21185;BME280;18176;49.502;11.754;2023-02-11T12:38:03;98576.41;;;9.88;55.76
21185;BME280;18176;49.502;11.754;2023-02-11T12:42:41;98570.69;;;10.20;54.77
21185;BME280;18176;49.502;11.754;2023-02-11T12:47:13;98576.50;;;9.65;55.27
21185;BME280;18176;49.502;11.754;2023-02-11T12:51:31;98551.59;;;9.31;56.01
21185;BME280;18176;49.502;11.754;2023-02-11T12:55:41;98560.63;;;9.07;57.33
21185;BME280;18176;49.502;11.754;2023-02-11T12:59:54;98568.09;;;9.03;57.57
21185;BME280;18176;49.502;11.754;2023-02-11T13:04:05;98568.53;;;8.92;58.25
21185;BME280;18176;49.502;11.754;2023-02-11T13:08:15;98558.41;;;8.96;57.74
21185;BME280;18176;49.502;11.754;2023-02-11T13:12:17;98560.91;;;9.27;57.33
21185;BME280;18176;49.502;11.754;2023-02-11T13:16:40;98553.25;;;9.32;57.02
21185;BME280;18176;49.502;11.754;2023-02-11T13:20:48;98552.69;;;9.22;57.54
21185;BME280;18176;49.502;11.754;2023-02-11T13:24:58;98549.06;;;9.52;56.89
21185;BME280;18176;49.502;11.754;2023-02-11T13:29:20;98543.84;;;9.73;56.56
21185;BME280;18176;49.502;11.754;2023-02-11T13:33:35;98548.50;;;9.12;57.60
21185;BME280;18176;49.502;11.754;2023-02-11T13:37:46;98548.84;;;9.09;57.81
21185;BME280;18176;49.502;11.754;2023-02-11T13:41:47;98537.91;;;9.12;58.06
21185;BME280;18176;49.502;11.754;2023-02-11T13:45:51;98543.22;;;9.12;58.06
21185;BME280;18176;49.502;11.754;2023-02-11T13:50:05;98537.06;;;8.83;58.98
21185;BME280;18176;49.502;11.754;2023-02-11T13:54:08;98551.59;;;9.01;58.89
21185;BME280;18176;49.502;11.754;2023-02-11T13:58:34;98546.22;;;9.09;58.17
21185;BME280;18176;49.502;11.754;2023-02-11T14:02:36;98539.91;;;8.96;59.02
21185;BME280;18176;49.502;11.754;2023-02-11T14:07:29;98524.03;;;8.81;59.55
21185;BME280;18176;49.502;11.754;2023-02-11T14:11:48;98521.50;;;8.88;59.81
21185;BME280;18176;49.502;11.754;2023-02-11T14:16:06;98534.13;;;8.78;60.34
21185;BME280;18176;49.502;11.754;2023-02-11T14:20:34;98526.03;;;8.79;60.66
21185;BME280;18176;49.502;11.754;2023-02-11T14:24:53;98538.88;;;8.82;60.53
21185;BME280;18176;49.502;11.754;2023-02-11T14:29:06;98552.34;;;8.73;61.14
21185;BME280;18176;49.502;11.754;2023-02-11T14:33:52;98557.78;;;8.34;63.01
21185;BME280;18176;49.502;11.754;2023-02-11T14:38:04;98560.00;;;8.45;62.84
21185;BME280;18176;49.502;11.754;2023-02-11T14:42:17;98552.31;;;8.05;64.23
21185;BME280;18176;49.502;11.754;2023-02-11T14:46:21;98525.84;;;8.13;63.98
21185;BME280;18176;49.502;11.754;2023-02-11T14:50:27;98548.16;;;8.41;63.33
21185;BME280;18176;49.502;11.754;2023-02-11T14:54:32;98553.50;;;8.25;64.21
21185;BME280;18176;49.502;11.754;2023-02-11T14:58:37;98551.41;;;8.20;64.47
21185;BME280;18176;49.502;11.754;2023-02-11T15:02:45;98547.28;;;8.18;64.64
21185;BME280;18176;49.502;11.754;2023-02-11T15:06:47;98561.38;;;7.79;66.40
21185;BME280;18176;49.502;11.754;2023-02-11T15:10:48;98555.09;;;7.80;66.60
21185;BME280;18176;49.502;11.754;2023-02-11T15:14:55;98551.28;;;8.14;65.85
21185;BME280;18176;49.502;11.754;2023-02-11T15:19:02;98549.72;;;7.97;66.35
21185;BME280;18176;49.502;11.754;2023-02-11T15:23:11;98561.41;;;7.71;67.36
21185;BME280;18176;49.502;11.754;2023-02-11T15:27:17;98554.88;;;7.90;66.86
21185;BME280;18176;49.502;11.754;2023-02-11T15:31:24;98570.53;;;8.22;65.47
21185;BME280;18176;49.502;11.754;2023-02-11T15:35:29;98569.72;;;8.22;65.71
21185;BME280;18176;49.502;11.754;2023-02-11T15:39:35;98563.44;;;8.31;65.12
21185;BME280;18176;49.502;11.754;2023-02-11T15:43:42;98567.38;;;8.27;65.18
21185;BME280;18176;49.502;11.754;2023-02-11T15:47:52;98565.28;;;8.45;64.64
21185;BME280;18176;49.502;11.754;2023-02-11T15:51:56;98566.72;;;8.33;64.81
21185;BME280;18176;49.502;11.754;2023-02-11T15:56:09;98579.34;;;8.15;65.49
21185;BME280;18176;49.502;11.754;2023-02-11T16:00:17;98591.66;;;7.92;66.09
21185;BME280;18176;49.502;11.754;2023-02-11T16:04:24;98583.50;;;8.01;66.00
21185;BME280;18176;49.502;11.754;2023-02-11T16:08:27;98591.03;;;7.90;66.11
21185;BME280;18176;49.502;11.754;2023-02-11T16:12:30;98587.72;;;7.88;66.61
21185;BME280;18176;49.502;11.754;2023-02-11T16:16:33;98594.38;;;8.06;65.85
21185;BME280;18176;49.502;11.754;2023-02-11T16:20:38;98607.25;;;8.01;65.84
21185;BME280;18176;49.502;11.754;2023-02-11T16:24:40;98610.31;;;8.21;65.29
21185;BME280;18176;49.502;11.754;2023-02-11T16:28:41;98612.78;;;7.92;66.20
21185;BME280;18176;49.502;11.754;2023-02-11T16:32:42;98608.63;;;7.97;66.15
21185;BME280;18176;49.502;11.754;2023-02-11T16:36:46;98606.94;;;7.73;67.03
21185;BME280;18176;49.502;11.754;2023-02-11T16:40:47;98607.91;;;7.64;67.72
21185;BME280;18176;49.502;11.754;2023-02-11T16:44:48;98600.75;;;7.50;68.42
21185;BME280;18176;49.502;11.754;2023-02-11T16:48:49;98603.72;;;7.47;68.52
21185;BME280;18176;49.502;11.754;2023-02-11T16:52:54;98608.47;;;7.52;68.79
21185;BME280;18176;49.502;11.754;2023-02-11T16:56:55;98601.97;;;7.70;67.93
21185;BME280;18176;49.502;11.754;2023-02-11T17:00:56;98607.41;;;7.69;67.78
21185;BME280;18176;49.502;11.754;2023-02-11T17:05:00;98610.53;;;7.72;67.73
21185;BME280;18176;49.502;11.754;2023-02-11T17:09:04;98621.78;;;7.66;68.18
21185;BME280;18176;49.502;11.754;2023-02-11T17:13:05;98624.94;;;7.54;68.56
21185;BME280;18176;49.502;11.754;2023-02-11T17:17:06;98612.09;;;7.59;68.62
21185;BME280;18176;49.502;11.754;2023-02-11T17:21:08;98616.53;;;7.58;68.71
21185;BME280;18176;49.502;11.754;2023-02-11T17:25:11;98619.84;;;7.52;69.16
21185;BME280;18176;49.502;11.754;2023-02-11T17:29:16;98605.38;;;7.40;69.06
21185;BME280;18176;49.502;11.754;2023-02-11T17:33:18;98627.72;;;7.60;68.67
21185;BME280;18176;49.502;11.754;2023-02-11T17:37:18;98628.09;;;7.57;68.87
21185;BME280;18176;49.502;11.754;2023-02-11T17:41:22;98630.59;;;7.43;69.74
21185;BME280;18176;49.502;11.754;2023-02-11T17:45:22;98631.19;;;7.53;69.58
21185;BME280;18176;49.502;11.754;2023-02-11T17:49:23;98645.09;;;7.39;70.69
21185;BME280;18176;49.502;11.754;2023-02-11T17:53:24;98638.50;;;7.35;71.19
21185;BME280;18176;49.502;11.754;2023-02-11T17:57:27;98649.25;;;7.25;72.05
21185;BME280;18176;49.502;11.754;2023-02-11T18:01:29;98646.94;;;7.14;72.70
21185;BME280;18176;49.502;11.754;2023-02-11T18:05:33;98666.69;;;7.26;72.48
21185;BME280;18176;49.502;11.754;2023-02-11T18:09:37;98671.31;;;7.16;73.38
21185;BME280;18176;49.502;11.754;2023-02-11T18:13:40;98662.75;;;7.14;73.50
21185;BME280;18176;49.502;11.754;2023-02-11T18:17:41;98660.47;;;7.11;74.00
21185;BME280;18176;49.502;11.754;2023-02-11T18:21:42;98656.81;;;7.12;73.82
21185;BME280;18176;49.502;11.754;2023-02-11T18:25:45;98669.38;;;7.02;74.29
21185;BME280;18176;49.502;11.754;2023-02-11T18:29:49;98654.84;;;7.22;73.57
21185;BME280;18176;49.502;11.754;2023-02-11T18:33:50;98663.41;;;7.24;73.59
21185;BME280;18176;49.502;11.754;2023-02-11T18:37:51;98661.91;;;7.46;72.86
21185;BME280;18176;49.502;11.754;2023-02-11T18:41:54;98668.31;;;7.51;72.41
21185;BME280;18176;49.502;11.754;2023-02-11T18:45:59;98682.53;;;7.34;73.06
21185;BME280;18176;49.502;11.754;2023-02-11T18:50:00;98669.66;;;7.31;72.85
21185;BME280;18176;49.502;11.754;2023-02-11T18:54:01;98685.47;;;7.47;72.39
21185;BME280;18176;49.502;11.754;2023-02-11T18:58:01;98675.56;;;7.49;72.23
21185;BME280;18176;49.502;11.754;2023-02-11T19:02:05;98685.28;;;7.57;72.20
21185;BME280;18176;49.502;11.754;2023-02-11T19:06:11;98688.44;;;7.52;72.40
21185;BME280;18176;49.502;11.754;2023-02-11T19:10:12;98677.44;;;7.88;71.02
21185;BME280;18176;49.502;11.754;2023-02-11T19:14:13;98691.09;;;7.99;70.42
21185;BME280;18176;49.502;11.754;2023-02-11T19:18:17;98687.72;;;7.74;70.84
21185;BME280;18176;49.502;11.754;2023-02-11T19:22:18;98693.31;;;7.71;71.20
21185;BME280;18176;49.502;11.754;2023-02-11T19:26:23;98698.97;;;7.52;71.90
21185;BME280;18176;49.502;11.754;2023-02-11T19:30:23;98694.34;;;7.46;72.68
21185;BME280;18176;49.502;11.754;2023-02-11T19:34:26;98687.06;;;7.64;72.13
21185;BME280;18176;49.502;11.754;2023-02-11T19:38:27;98685.41;;;7.79;71.24
21185;BME280;18176;49.502;11.754;2023-02-11T19:42:28;98680.34;;;7.54;72.18
21185;BME280;18176;49.502;11.754;2023-02-11T19:46:34;98690.53;;;7.73;71.52
21185;BME280;18176;49.502;11.754;2023-02-11T19:50:39;98691.31;;;7.82;70.89
21185;BME280;18176;49.502;11.754;2023-02-11T19:54:40;98683.06;;;7.85;70.92
21185;BME280;18176;49.502;11.754;2023-02-11T19:58:41;98649.97;;;7.66;71.26
21185;BME280;18176;49.502;11.754;2023-02-11T20:02:42;98694.94;;;7.89;71.05
21185;BME280;18176;49.502;11.754;2023-02-11T20:06:46;98671.88;;;7.83;70.98
21185;BME280;18176;49.502;11.754;2023-02-11T20:10:47;98692.00;;;7.75;71.82
21185;BME280;18176;49.502;11.754;2023-02-11T20:14:47;98688.50;;;7.91;71.19
21185;BME280;18176;49.502;11.754;2023-02-11T20:18:49;98692.28;;;7.89;71.25
21185;BME280;18176;49.502;11.754;2023-02-11T20:22:53;98691.00;;;7.76;71.60
21185;BME280;18176;49.502;11.754;2023-02-11T20:26:54;98686.41;;;7.70;72.30
21185;BME280;18176;49.502;11.754;2023-02-11T20:30:55;98693.00;;;7.74;71.97
21185;BME280;18176;49.502;11.754;2023-02-11T20:34:56;98695.66;;;7.66;72.39
21185;BME280;18176;49.502;11.754;2023-02-11T20:39:01;98705.38;;;7.66;72.65
21185;BME280;18176;49.502;11.754;2023-02-11T20:43:02;98709.34;;;7.62;72.91
21185;BME280;18176;49.502;11.754;2023-02-11T20:47:03;98690.38;;;7.66;72.89
21185;BME280;18176;49.502;11.754;2023-02-11T20:51:06;98706.06;;;7.52;73.25
21185;BME280;18176;49.502;11.754;2023-02-11T20:55:09;98718.59;;;7.42;73.87
21185;BME280;18176;49.502;11.754;2023-02-11T20:59:12;98705.06;;;7.37;74.22
21185;BME280;18176;49.502;11.754;2023-02-11T21:03:13;98719.09;;;7.45;74.17
21185;BME280;18176;49.502;11.754;2023-02-11T21:07:14;98723.38;;;7.54;74.10
21185;BME280;18176;49.502;11.754;2023-02-11T21:11:17;98714.81;;;7.36;74.43
21185;BME280;18176;49.502;11.754;2023-02-11T21:15:17;98707.88;;;7.35;74.91
21185;BME280;18176;49.502;11.754;2023-02-11T21:19:20;98693.72;;;7.36;74.43
21185;BME280;18176;49.502;11.754;2023-02-11T21:23:21;98691.91;;;7.29;74.58
21185;BME280;18176;49.502;11.754;2023-02-11T21:27:24;98728.63;;;7.62;74.23
21185;BME280;18176;49.502;11.754;2023-02-11T21:31:31;98723.72;;;7.43;74.68
21185;BME280;18176;49.502;11.754;2023-02-11T21:35:33;98742.47;;;7.72;73.83
21185;BME280;18176;49.502;11.754;2023-02-11T21:39:34;98739.50;;;7.67;74.03
21185;BME280;18176;49.502;11.754;2023-02-11T21:43:37;98748.09;;;7.53;74.66